sensor_id;sensor_type;location;lat;lon;timestamp;temperature;humidity
10883;DHT22;5494;51.796;10.952;2023-01-25T00:02:12;1.20;99.90
10883;DHT22;5494;51.796;10.952;2023-01-25T00:04:40;0.20;99.90
10883;DHT22;5494;51.796;10.952;2023-01-25T00:07:10;0.90;99.90
10883;DHT22;5494;51.796;10.952;2023-01-25T00:09:37;0.80;99.90
10883;DHT22;5494;51.796;10.952;2023-01-25T00:12:05;0.70;99.90
10883;DHT22;5494;51.796;10.952;2023-01-25T00:14:34;0.80;99.90
10883;DHT22;5494;51.796;10.952;2023-01-25T00:17:02;0.90;99.90
10883;DHT22;5494;51.796;10.952;2023-01-25T00:19:30;1.00;99.90
10883;DHT22;5494;51.796;10.952;2023-01-25T00:21:58;1.00;99.90
10883;DHT22;5494;51.796;10.952;2023-01-25T00:24:27;1.00;99.90
10883;DHT22;5494;51.796;10.952;2023-01-25T00:26:55;1.00;99.90
10883;DHT22;5494;51.796;10.952;2023-01-25T00:29:23;1.00;99.90
10883;DHT22;5494;51.796;10.952;2023-01-25T00:32:05;1.00;99.90
10883;DHT22;5494;51.796;10.952;2023-01-25T00:34:56;1.00;99.90
10883;DHT22;5494;51.796;10.952;2023-01-25T00:37:29;1.00;99.90
10883;DHT22;5494;51.796;10.952;2023-01-25T00:40:05;1.00;99.90
10883;DHT22;5494;51.796;10.952;2023-01-25T00:42:36;1.00;99.90
10883;DHT22;5494;51.796;10.952;2023-01-25T00:45:05;0.90;99.90
10883;DHT22;5494;51.796;10.952;2023-01-25T00:47:35;0.90;99.90
10883;DHT22;5494;51.796;10.952;2023-01-25T00:50:04;1.00;99.90
10883;DHT22;5494;51.796;10.952;2023-01-25T00:52:33;1.10;99.90
10883;DHT22;5494;51.796;10.952;2023-01-25T00:55:01;1.00;99.90
10883;DHT22;5494;51.796;10.952;2023-01-25T00:57:30;1.10;99.90
10883;DHT22;5494;51.796;10.952;2023-01-25T00:59:58;1.10;99.90
10883;DHT22;5494;51.796;10.952;2023-01-25T01:02:26;1.10;99.90
10883;DHT22;5494;51.796;10.952;2023-01-25T01:04:57;1.00;99.90
10883;DHT22;5494;51.796;10.952;2023-01-25T01:07:26;0.90;99.90
10883;DHT22;5494;51.796;10.952;2023-01-25T01:09:54;1.00;99.90
10883;DHT22;5494;51.796;10.952;2023-01-25T01:12:23;0.80;99.90
10883;DHT22;5494;51.796;10.952;2023-01-25T01:14:52;0.80;99.90
10883;DHT22;5494;51.796;10.952;2023-01-25T01:17:20;0.80;99.90
10883;DHT22;5494;51.796;10.952;2023-01-25T01:19:48;0.90;99.90
10883;DHT22;5494;51.796;10.952;2023-01-25T01:22:17;0.90;99.90
10883;DHT22;5494;51.796;10.952;2023-01-25T01:24:46;0.90;99.90
10883;DHT22;5494;51.796;10.952;2023-01-25T01:27:15;0.90;99.90
10883;DHT22;5494;51.796;10.952;2023-01-25T01:29:43;0.90;99.90
10883;DHT22;5494;51.796;10.952;2023-01-25T01:32:12;0.80;99.90
10883;DHT22;5494;51.796;10.952;2023-01-25T01:34:40;0.80;99.90
10883;DHT22;5494;51.796;10.952;2023-01-25T01:37:10;0.80;99.90
10883;DHT22;5494;51.796;10.952;2023-01-25T01:39:39;0.70;99.90
10883;DHT22;5494;51.796;10.952;2023-01-25T01:42:07;0.70;99.90
10883;DHT22;5494;51.796;10.952;2023-01-25T01:44:43;0.70;99.90
10883;DHT22;5494;51.796;10.952;2023-01-25T01:47:18;0.70;99.90
10883;DHT22;5494;51.796;10.952;2023-01-25T01:49:58;0.70;99.90
10883;DHT22;5494;51.796;10.952;2023-01-25T01:52:34;0.70;99.90
10883;DHT22;5494;51.796;10.952;2023-01-25T01:55:07;0.70;99.90
10883;DHT22;5494;51.796;10.952;2023-01-25T01:57:43;0.70;99.90
10883;DHT22;5494;51.796;10.952;2023-01-25T02:00:17;0.70;99.90
10883;DHT22;5494;51.796;10.952;2023-01-25T02:02:50;0.70;99.90
10883;DHT22;5494;51.796;10.952;2023-01-25T02:05:23;0.70;99.90
10883;DHT22;5494;51.796;10.952;2023-01-25T02:07:56;0.60;99.90
10883;DHT22;5494;51.796;10.952;2023-01-25T02:10:26;0.70;99.90
10883;DHT22;5494;51.796;10.952;2023-01-25T02:12:55;0.80;99.90
10883;DHT22;5494;51.796;10.952;2023-01-25T02:15:27;0.80;99.90
10883;DHT22;5494;51.796;10.952;2023-01-25T02:18:00;0.80;99.90
10883;DHT22;5494;51.796;10.952;2023-01-25T02:20:34;0.70;99.90
10883;DHT22;5494;51.796;10.952;2023-01-25T02:23:11;0.70;99.90
10883;DHT22;5494;51.796;10.952;2023-01-25T02:25:49;0.70;99.90
10883;DHT22;5494;51.796;10.952;2023-01-25T02:28:21;0.70;99.90
10883;DHT22;5494;51.796;10.952;2023-01-25T02:30:53;0.70;99.90
10883;DHT22;5494;51.796;10.952;2023-01-25T02:33:23;0.60;99.90
10883;DHT22;5494;51.796;10.952;2023-01-25T02:35:57;1.10;99.90
10883;DHT22;5494;51.796;10.952;2023-01-25T02:38:29;0.60;99.90
10883;DHT22;5494;51.796;10.952;2023-01-25T02:41:06;0.60;99.90
10883;DHT22;5494;51.796;10.952;2023-01-25T02:43:38;0.70;99.90
10883;DHT22;5494;51.796;10.952;2023-01-25T02:46:10;0.70;99.90
10883;DHT22;5494;51.796;10.952;2023-01-25T02:48:43;0.70;99.90
10883;DHT22;5494;51.796;10.952;2023-01-25T02:51:11;0.70;99.90
10883;DHT22;5494;51.796;10.952;2023-01-25T02:53:40;0.80;99.90
10883;DHT22;5494;51.796;10.952;2023-01-25T02:56:09;0.70;99.90
10883;DHT22;5494;51.796;10.952;2023-01-25T02:58:37;0.70;99.90
10883;DHT22;5494;51.796;10.952;2023-01-25T03:01:05;0.70;99.90
10883;DHT22;5494;51.796;10.952;2023-01-25T03:03:33;0.70;99.90
10883;DHT22;5494;51.796;10.952;2023-01-25T03:06:02;0.60;99.90
10883;DHT22;5494;51.796;10.952;2023-01-25T03:08:31;0.60;99.90
10883;DHT22;5494;51.796;10.952;2023-01-25T03:11:01;0.60;99.90
10883;DHT22;5494;51.796;10.952;2023-01-25T03:13:33;0.60;99.90
10883;DHT22;5494;51.796;10.952;2023-01-25T03:16:06;0.60;99.90
10883;DHT22;5494;51.796;10.952;2023-01-25T03:18:38;0.70;99.90
10883;DHT22;5494;51.796;10.952;2023-01-25T03:21:08;0.70;99.90
10883;DHT22;5494;51.796;10.952;2023-01-25T03:23:38;0.70;99.90
10883;DHT22;5494;51.796;10.952;2023-01-25T03:26:10;0.70;99.90
10883;DHT22;5494;51.796;10.952;2023-01-25T03:28:55;0.80;99.90
10883;DHT22;5494;51.796;10.952;2023-01-25T03:31:23;0.70;99.90
10883;DHT22;5494;51.796;10.952;2023-01-25T03:33:51;0.70;99.90
10883;DHT22;5494;51.796;10.952;2023-01-25T03:36:24;0.70;99.90
10883;DHT22;5494;51.796;10.952;2023-01-25T03:38:52;0.70;99.90
10883;DHT22;5494;51.796;10.952;2023-01-25T03:41:20;0.80;99.90
10883;DHT22;5494;51.796;10.952;2023-01-25T03:43:48;0.70;99.90
10883;DHT22;5494;51.796;10.952;2023-01-25T03:46:18;0.80;99.90
10883;DHT22;5494;51.796;10.952;2023-01-25T03:48:46;0.70;99.90
10883;DHT22;5494;51.796;10.952;2023-01-25T03:51:14;0.80;99.90
10883;DHT22;5494;51.796;10.952;2023-01-25T03:53:42;0.90;99.90
10883;DHT22;5494;51.796;10.952;2023-01-25T03:56:15;0.90;99.90
10883;DHT22;5494;51.796;10.952;2023-01-25T03:58:56;0.80;99.90
10883;DHT22;5494;51.796;10.952;2023-01-25T04:01:26;0.90;99.90
10883;DHT22;5494;51.796;10.952;2023-01-25T04:03:54;0.90;99.90
10883;DHT22;5494;51.796;10.952;2023-01-25T04:06:23;0.90;99.90
10883;DHT22;5494;51.796;10.952;2023-01-25T04:08:51;0.90;99.90
10883;DHT22;5494;51.796;10.952;2023-01-25T04:11:21;1.00;99.90
10883;DHT22;5494;51.796;10.952;2023-01-25T04:13:49;0.90;99.90
10883;DHT22;5494;51.796;10.952;2023-01-25T04:16:19;0.90;99.90
10883;DHT22;5494;51.796;10.952;2023-01-25T04:19:08;0.90;99.90
10883;DHT22;5494;51.796;10.952;2023-01-25T04:21:37;0.90;99.90
10883;DHT22;5494;51.796;10.952;2023-01-25T04:24:06;0.90;99.90
10883;DHT22;5494;51.796;10.952;2023-01-25T04:26:37;0.90;99.90
10883;DHT22;5494;51.796;10.952;2023-01-25T04:29:06;1.00;99.90
10883;DHT22;5494;51.796;10.952;2023-01-25T04:31:34;0.90;99.90
10883;DHT22;5494;51.796;10.952;2023-01-25T04:34:02;0.90;99.90
10883;DHT22;5494;51.796;10.952;2023-01-25T04:36:32;0.90;99.90
10883;DHT22;5494;51.796;10.952;2023-01-25T04:39:01;0.80;99.90
10883;DHT22;5494;51.796;10.952;2023-01-25T04:41:29;0.90;99.90
10883;DHT22;5494;51.796;10.952;2023-01-25T04:43:57;0.90;99.90
10883;DHT22;5494;51.796;10.952;2023-01-25T04:46:25;0.90;99.90
10883;DHT22;5494;51.796;10.952;2023-01-25T04:48:54;0.90;99.90
10883;DHT22;5494;51.796;10.952;2023-01-25T04:51:21;0.90;99.90
10883;DHT22;5494;51.796;10.952;2023-01-25T04:53:51;0.90;99.90
10883;DHT22;5494;51.796;10.952;2023-01-25T04:56:19;0.90;99.90
10883;DHT22;5494;51.796;10.952;2023-01-25T04:58:52;0.90;99.90
10883;DHT22;5494;51.796;10.952;2023-01-25T05:01:20;0.90;99.90
10883;DHT22;5494;51.796;10.952;2023-01-25T05:03:50;0.90;99.90
10883;DHT22;5494;51.796;10.952;2023-01-25T05:06:27;0.80;99.90
10883;DHT22;5494;51.796;10.952;2023-01-25T05:08:57;0.90;99.90
10883;DHT22;5494;51.796;10.952;2023-01-25T05:11:26;0.90;99.90
10883;DHT22;5494;51.796;10.952;2023-01-25T05:14:00;0.80;99.90
10883;DHT22;5494;51.796;10.952;2023-01-25T05:16:31;0.90;99.90
10883;DHT22;5494;51.796;10.952;2023-01-25T05:19:00;0.90;99.90
10883;DHT22;5494;51.796;10.952;2023-01-25T05:22:03;0.90;99.90
10883;DHT22;5494;51.796;10.952;2023-01-25T05:24:43;0.80;99.90
10883;DHT22;5494;51.796;10.952;2023-01-25T05:27:16;0.70;99.90
10883;DHT22;5494;51.796;10.952;2023-01-25T05:30:06;0.70;99.90
10883;DHT22;5494;51.796;10.952;2023-01-25T05:32:48;0.70;99.90
10883;DHT22;5494;51.796;10.952;2023-01-25T05:35:17;0.60;99.90
10883;DHT22;5494;51.796;10.952;2023-01-25T05:37:46;0.60;99.90
10883;DHT22;5494;51.796;10.952;2023-01-25T05:40:21;0.60;99.90
10883;DHT22;5494;51.796;10.952;2023-01-25T05:42:53;0.60;99.90
10883;DHT22;5494;51.796;10.952;2023-01-25T05:45:23;0.60;99.90
10883;DHT22;5494;51.796;10.952;2023-01-25T05:47:53;0.50;99.90
10883;DHT22;5494;51.796;10.952;2023-01-25T05:50:23;0.50;99.90
10883;DHT22;5494;51.796;10.952;2023-01-25T05:53:14;0.50;99.90
10883;DHT22;5494;51.796;10.952;2023-01-25T05:55:47;0.40;99.90
10883;DHT22;5494;51.796;10.952;2023-01-25T05:58:16;0.40;99.90
10883;DHT22;5494;51.796;10.952;2023-01-25T06:00:43;0.40;99.90
10883;DHT22;5494;51.796;10.952;2023-01-25T06:03:21;0.40;99.90
10883;DHT22;5494;51.796;10.952;2023-01-25T06:05:53;0.50;99.90
10883;DHT22;5494;51.796;10.952;2023-01-25T06:08:22;0.50;99.90
10883;DHT22;5494;51.796;10.952;2023-01-25T06:10:53;0.50;99.90
10883;DHT22;5494;51.796;10.952;2023-01-25T06:13:22;0.40;99.90
10883;DHT22;5494;51.796;10.952;2023-01-25T06:15:53;0.40;99.90
10883;DHT22;5494;51.796;10.952;2023-01-25T06:18:41;0.30;99.90
10883;DHT22;5494;51.796;10.952;2023-01-25T06:21:28;0.30;99.90
10883;DHT22;5494;51.796;10.952;2023-01-25T06:23:56;0.30;99.90
10883;DHT22;5494;51.796;10.952;2023-01-25T06:26:26;0.30;99.90
10883;DHT22;5494;51.796;10.952;2023-01-25T06:28:54;0.30;99.90
10883;DHT22;5494;51.796;10.952;2023-01-25T06:31:22;-0.40;99.90
10883;DHT22;5494;51.796;10.952;2023-01-25T06:33:51;0.30;99.90
10883;DHT22;5494;51.796;10.952;2023-01-25T06:36:21;0.30;99.90
10883;DHT22;5494;51.796;10.952;2023-01-25T06:38:50;0.30;99.90
10883;DHT22;5494;51.796;10.952;2023-01-25T06:41:19;0.20;99.90
10883;DHT22;5494;51.796;10.952;2023-01-25T06:43:50;0.30;99.90
10883;DHT22;5494;51.796;10.952;2023-01-25T06:46:19;0.20;99.90
10883;DHT22;5494;51.796;10.952;2023-01-25T06:48:47;0.20;99.90
10883;DHT22;5494;51.796;10.952;2023-01-25T06:51:15;0.30;99.90
10883;DHT22;5494;51.796;10.952;2023-01-25T06:53:45;0.30;99.90
10883;DHT22;5494;51.796;10.952;2023-01-25T06:56:15;0.30;99.90
10883;DHT22;5494;51.796;10.952;2023-01-25T06:58:47;0.20;99.90
10883;DHT22;5494;51.796;10.952;2023-01-25T07:01:18;0.20;99.90
10883;DHT22;5494;51.796;10.952;2023-01-25T07:03:49;0.20;99.90
10883;DHT22;5494;51.796;10.952;2023-01-25T07:06:18;0.30;99.90
10883;DHT22;5494;51.796;10.952;2023-01-25T07:08:47;0.40;99.90
10883;DHT22;5494;51.796;10.952;2023-01-25T07:11:16;0.40;99.90
10883;DHT22;5494;51.796;10.952;2023-01-25T07:13:46;0.30;99.90
10883;DHT22;5494;51.796;10.952;2023-01-25T07:16:19;0.30;99.90
10883;DHT22;5494;51.796;10.952;2023-01-25T07:18:47;0.30;99.90
10883;DHT22;5494;51.796;10.952;2023-01-25T07:21:17;0.30;99.90
10883;DHT22;5494;51.796;10.952;2023-01-25T07:23:46;0.40;99.90
10883;DHT22;5494;51.796;10.952;2023-01-25T07:26:17;0.40;99.90
10883;DHT22;5494;51.796;10.952;2023-01-25T07:28:46;0.40;99.90
10883;DHT22;5494;51.796;10.952;2023-01-25T07:31:16;0.50;99.90
10883;DHT22;5494;51.796;10.952;2023-01-25T07:33:47;0.50;99.90
10883;DHT22;5494;51.796;10.952;2023-01-25T07:36:16;0.50;99.90
10883;DHT22;5494;51.796;10.952;2023-01-25T07:38:45;0.60;99.90
10883;DHT22;5494;51.796;10.952;2023-01-25T07:41:13;0.60;99.90
10883;DHT22;5494;51.796;10.952;2023-01-25T07:43:42;0.60;99.90
10883;DHT22;5494;51.796;10.952;2023-01-25T07:46:11;0.60;99.90
10883;DHT22;5494;51.796;10.952;2023-01-25T07:48:45;0.60;99.90
10883;DHT22;5494;51.796;10.952;2023-01-25T07:51:15;0.50;99.90
10883;DHT22;5494;51.796;10.952;2023-01-25T07:53:53;0.50;99.90
10883;DHT22;5494;51.796;10.952;2023-01-25T07:56:24;0.60;99.90
10883;DHT22;5494;51.796;10.952;2023-01-25T07:58:54;0.60;99.90
10883;DHT22;5494;51.796;10.952;2023-01-25T08:01:25;0.50;99.90
10883;DHT22;5494;51.796;10.952;2023-01-25T08:03:56;0.50;99.90
10883;DHT22;5494;51.796;10.952;2023-01-25T08:06:25;0.40;99.90
10883;DHT22;5494;51.796;10.952;2023-01-25T08:08:57;0.30;99.90
10883;DHT22;5494;51.796;10.952;2023-01-25T08:11:27;0.30;99.90
10883;DHT22;5494;51.796;10.952;2023-01-25T08:13:58;0.40;99.90
10883;DHT22;5494;51.796;10.952;2023-01-25T08:16:28;0.50;99.90
10883;DHT22;5494;51.796;10.952;2023-01-25T08:19:00;0.50;99.90
10883;DHT22;5494;51.796;10.952;2023-01-25T08:21:31;0.50;99.90
10883;DHT22;5494;51.796;10.952;2023-01-25T08:24:02;0.60;99.90
10883;DHT22;5494;51.796;10.952;2023-01-25T08:26:32;0.60;99.90
10883;DHT22;5494;51.796;10.952;2023-01-25T08:29:01;0.60;99.90
10883;DHT22;5494;51.796;10.952;2023-01-25T08:31:31;0.50;99.90
10883;DHT22;5494;51.796;10.952;2023-01-25T08:34:03;0.60;99.90
10883;DHT22;5494;51.796;10.952;2023-01-25T08:36:31;0.60;99.90
10883;DHT22;5494;51.796;10.952;2023-01-25T08:39:00;0.60;99.90
10883;DHT22;5494;51.796;10.952;2023-01-25T08:41:31;0.70;99.90
10883;DHT22;5494;51.796;10.952;2023-01-25T08:44:00;0.80;99.90
10883;DHT22;5494;51.796;10.952;2023-01-25T08:46:29;0.90;99.90
10883;DHT22;5494;51.796;10.952;2023-01-25T08:49:00;1.00;99.90
10883;DHT22;5494;51.796;10.952;2023-01-25T08:51:31;1.10;99.90
10883;DHT22;5494;51.796;10.952;2023-01-25T08:54:03;1.00;99.90
10883;DHT22;5494;51.796;10.952;2023-01-25T08:56:32;1.10;99.90
10883;DHT22;5494;51.796;10.952;2023-01-25T08:59:00;1.20;99.90
10883;DHT22;5494;51.796;10.952;2023-01-25T09:01:28;1.20;99.90
10883;DHT22;5494;51.796;10.952;2023-01-25T09:03:56;1.40;99.90
10883;DHT22;5494;51.796;10.952;2023-01-25T09:06:27;1.20;99.90
10883;DHT22;5494;51.796;10.952;2023-01-25T09:08:55;1.20;99.90
10883;DHT22;5494;51.796;10.952;2023-01-25T09:11:24;1.20;99.90
10883;DHT22;5494;51.796;10.952;2023-01-25T09:13:52;1.30;99.90
10883;DHT22;5494;51.796;10.952;2023-01-25T09:16:22;1.20;99.90
10883;DHT22;5494;51.796;10.952;2023-01-25T09:18:56;1.30;99.90
10883;DHT22;5494;51.796;10.952;2023-01-25T09:21:27;1.30;99.90
10883;DHT22;5494;51.796;10.952;2023-01-25T09:23:56;1.30;99.90
10883;DHT22;5494;51.796;10.952;2023-01-25T09:26:34;1.40;99.90
10883;DHT22;5494;51.796;10.952;2023-01-25T09:29:04;1.40;99.90
10883;DHT22;5494;51.796;10.952;2023-01-25T09:31:34;1.50;99.90
10883;DHT22;5494;51.796;10.952;2023-01-25T09:34:14;1.60;99.90
10883;DHT22;5494;51.796;10.952;2023-01-25T09:36:43;1.70;99.90
10883;DHT22;5494;51.796;10.952;2023-01-25T09:39:12;1.90;99.90
10883;DHT22;5494;51.796;10.952;2023-01-25T09:45:13;2.20;99.90
10883;DHT22;5494;51.796;10.952;2023-01-25T09:47:50;1.90;99.90
10883;DHT22;5494;51.796;10.952;2023-01-25T09:50:32;1.90;99.90
10883;DHT22;5494;51.796;10.952;2023-01-25T09:53:31;1.90;99.90
10883;DHT22;5494;51.796;10.952;2023-01-25T09:56:06;2.00;99.90
10883;DHT22;5494;51.796;10.952;2023-01-25T09:58:42;2.00;99.90
10883;DHT22;5494;51.796;10.952;2023-01-25T10:01:23;2.10;99.90
10883;DHT22;5494;51.796;10.952;2023-01-25T10:04:12;2.20;99.90
10883;DHT22;5494;51.796;10.952;2023-01-25T10:06:45;2.40;99.90
10883;DHT22;5494;51.796;10.952;2023-01-25T10:09:36;2.90;99.90
10883;DHT22;5494;51.796;10.952;2023-01-25T10:12:15;2.40;99.90
10883;DHT22;5494;51.796;10.952;2023-01-25T10:14:47;2.50;99.90
10883;DHT22;5494;51.796;10.952;2023-01-25T10:17:23;2.00;99.90
10883;DHT22;5494;51.796;10.952;2023-01-25T10:20:07;2.50;99.90
10883;DHT22;5494;51.796;10.952;2023-01-25T10:22:49;2.50;99.90
10883;DHT22;5494;51.796;10.952;2023-01-25T10:25:29;2.40;99.90
10883;DHT22;5494;51.796;10.952;2023-01-25T10:28:16;2.20;99.90
10883;DHT22;5494;51.796;10.952;2023-01-25T10:30:58;2.00;99.90
10883;DHT22;5494;51.796;10.952;2023-01-25T10:33:30;1.60;99.90
10883;DHT22;5494;51.796;10.952;2023-01-25T10:36:05;1.50;99.90
10883;DHT22;5494;51.796;10.952;2023-01-25T10:38:37;1.50;99.90
10883;DHT22;5494;51.796;10.952;2023-01-25T10:41:14;1.60;99.90
10883;DHT22;5494;51.796;10.952;2023-01-25T10:43:46;1.70;99.90
10883;DHT22;5494;51.796;10.952;2023-01-25T10:46:35;1.70;99.90
10883;DHT22;5494;51.796;10.952;2023-01-25T10:49:19;1.90;99.90
10883;DHT22;5494;51.796;10.952;2023-01-25T10:51:50;1.90;99.90
10883;DHT22;5494;51.796;10.952;2023-01-25T10:54:18;1.80;99.90
10883;DHT22;5494;51.796;10.952;2023-01-25T10:56:51;1.90;99.90
10883;DHT22;5494;51.796;10.952;2023-01-25T10:59:22;1.90;99.90
10883;DHT22;5494;51.796;10.952;2023-01-25T11:01:53;1.80;99.90
10883;DHT22;5494;51.796;10.952;2023-01-25T11:04:28;1.70;99.90
10883;DHT22;5494;51.796;10.952;2023-01-25T11:07:01;1.80;99.90
10883;DHT22;5494;51.796;10.952;2023-01-25T11:09:37;1.90;99.90
10883;DHT22;5494;51.796;10.952;2023-01-25T11:12:17;1.90;99.90
10883;DHT22;5494;51.796;10.952;2023-01-25T11:14:48;2.10;99.90
10883;DHT22;5494;51.796;10.952;2023-01-25T11:17:25;2.30;99.90
10883;DHT22;5494;51.796;10.952;2023-01-25T11:20:06;2.40;99.90
10883;DHT22;5494;51.796;10.952;2023-01-25T11:22:50;2.40;99.90
10883;DHT22;5494;51.796;10.952;2023-01-25T11:25:29;2.40;99.90
10883;DHT22;5494;51.796;10.952;2023-01-25T11:28:16;2.40;99.90
10883;DHT22;5494;51.796;10.952;2023-01-25T11:30:46;2.50;99.90
10883;DHT22;5494;51.796;10.952;2023-01-25T11:33:17;2.40;99.90
10883;DHT22;5494;51.796;10.952;2023-01-25T11:36:02;2.30;99.90
10883;DHT22;5494;51.796;10.952;2023-01-25T11:38:38;2.30;99.90
10883;DHT22;5494;51.796;10.952;2023-01-25T11:41:20;2.40;99.90
10883;DHT22;5494;51.796;10.952;2023-01-25T11:44:13;2.40;99.90
10883;DHT22;5494;51.796;10.952;2023-01-25T11:46:59;2.40;99.90
10883;DHT22;5494;51.796;10.952;2023-01-25T11:49:44;2.40;99.90
10883;DHT22;5494;51.796;10.952;2023-01-25T11:52:27;2.20;99.90
10883;DHT22;5494;51.796;10.952;2023-01-25T11:55:13;2.10;99.90
10883;DHT22;5494;51.796;10.952;2023-01-25T11:58:03;2.10;99.90
10883;DHT22;5494;51.796;10.952;2023-01-25T12:00:57;3.60;99.90
10883;DHT22;5494;51.796;10.952;2023-01-25T12:03:53;1.90;99.90
10883;DHT22;5494;51.796;10.952;2023-01-25T12:06:38;1.90;99.90
10883;DHT22;5494;51.796;10.952;2023-01-25T12:09:24;1.80;99.90
10883;DHT22;5494;51.796;10.952;2023-01-25T12:12:15;1.80;99.90
10883;DHT22;5494;51.796;10.952;2023-01-25T12:15:05;2.00;99.90
10883;DHT22;5494;51.796;10.952;2023-01-25T12:18:01;2.10;99.90
10883;DHT22;5494;51.796;10.952;2023-01-25T12:21:01;2.10;99.90
10883;DHT22;5494;51.796;10.952;2023-01-25T12:23:40;2.10;99.90
10883;DHT22;5494;51.796;10.952;2023-01-25T12:26:24;2.10;99.90
10883;DHT22;5494;51.796;10.952;2023-01-25T12:29:01;2.10;99.90
10883;DHT22;5494;51.796;10.952;2023-01-25T12:31:39;2.10;99.90
10883;DHT22;5494;51.796;10.952;2023-01-25T12:34:18;2.10;99.90
10883;DHT22;5494;51.796;10.952;2023-01-25T12:36:52;2.10;99.90
10883;DHT22;5494;51.796;10.952;2023-01-25T12:39:23;2.00;99.90
10883;DHT22;5494;51.796;10.952;2023-01-25T12:41:59;2.00;99.90
10883;DHT22;5494;51.796;10.952;2023-01-25T12:44:36;2.00;99.90
10883;DHT22;5494;51.796;10.952;2023-01-25T12:47:12;2.00;99.90
10883;DHT22;5494;51.796;10.952;2023-01-25T12:49:50;2.00;99.90
10883;DHT22;5494;51.796;10.952;2023-01-25T12:52:23;2.00;99.90
10883;DHT22;5494;51.796;10.952;2023-01-25T12:54:59;1.90;99.90
10883;DHT22;5494;51.796;10.952;2023-01-25T12:57:32;1.40;99.90
10883;DHT22;5494;51.796;10.952;2023-01-25T13:00:14;2.00;99.90
10883;DHT22;5494;51.796;10.952;2023-01-25T13:02:59;2.00;99.90
10883;DHT22;5494;51.796;10.952;2023-01-25T13:05:45;1.90;99.90
10883;DHT22;5494;51.796;10.952;2023-01-25T13:08:26;1.90;99.90
10883;DHT22;5494;51.796;10.952;2023-01-25T13:11:08;1.90;99.90
10883;DHT22;5494;51.796;10.952;2023-01-25T13:13:41;1.90;99.90
10883;DHT22;5494;51.796;10.952;2023-01-25T13:19:18;1.80;99.90
10883;DHT22;5494;51.796;10.952;2023-01-25T13:21:49;1.70;99.90
10883;DHT22;5494;51.796;10.952;2023-01-25T13:24:23;1.70;99.90
10883;DHT22;5494;51.796;10.952;2023-01-25T13:27:02;1.70;99.90
10883;DHT22;5494;51.796;10.952;2023-01-25T13:29:56;1.70;99.90
10883;DHT22;5494;51.796;10.952;2023-01-25T13:35:35;1.60;99.90
10883;DHT22;5494;51.796;10.952;2023-01-25T13:38:27;1.60;99.90
10883;DHT22;5494;51.796;10.952;2023-01-25T13:41:06;1.50;99.90
10883;DHT22;5494;51.796;10.952;2023-01-25T13:43:39;1.40;99.90
10883;DHT22;5494;51.796;10.952;2023-01-25T13:46:11;1.50;99.90
10883;DHT22;5494;51.796;10.952;2023-01-25T13:48:51;1.50;99.90
10883;DHT22;5494;51.796;10.952;2023-01-25T13:51:28;1.50;99.90
10883;DHT22;5494;51.796;10.952;2023-01-25T13:54:03;1.60;99.90
10883;DHT22;5494;51.796;10.952;2023-01-25T13:56:32;1.60;99.90
10883;DHT22;5494;51.796;10.952;2023-01-25T13:59:01;1.60;99.90
10883;DHT22;5494;51.796;10.952;2023-01-25T14:01:31;1.50;99.90
10883;DHT22;5494;51.796;10.952;2023-01-25T14:04:03;1.50;99.90
10883;DHT22;5494;51.796;10.952;2023-01-25T14:06:33;1.60;99.90
10883;DHT22;5494;51.796;10.952;2023-01-25T14:09:12;1.60;99.90
10883;DHT22;5494;51.796;10.952;2023-01-25T14:11:44;1.70;99.90
10883;DHT22;5494;51.796;10.952;2023-01-25T14:14:19;1.70;99.90
10883;DHT22;5494;51.796;10.952;2023-01-25T14:17:12;1.70;99.90
10883;DHT22;5494;51.796;10.952;2023-01-25T14:19:45;1.70;99.90
10883;DHT22;5494;51.796;10.952;2023-01-25T14:22:21;1.80;99.90
10883;DHT22;5494;51.796;10.952;2023-01-25T14:25:17;1.70;99.90
10883;DHT22;5494;51.796;10.952;2023-01-25T14:27:50;1.70;99.90
10883;DHT22;5494;51.796;10.952;2023-01-25T14:30:23;1.30;99.90
10883;DHT22;5494;51.796;10.952;2023-01-25T14:32:54;0.90;99.90
10883;DHT22;5494;51.796;10.952;2023-01-25T14:35:35;0.80;99.90
10883;DHT22;5494;51.796;10.952;2023-01-25T14:38:29;0.90;99.90
10883;DHT22;5494;51.796;10.952;2023-01-25T14:41:04;1.10;99.90
10883;DHT22;5494;51.796;10.952;2023-01-25T14:43:41;1.10;99.90
10883;DHT22;5494;51.796;10.952;2023-01-25T14:46:19;1.10;99.90
10883;DHT22;5494;51.796;10.952;2023-01-25T14:49:14;1.20;99.90
10883;DHT22;5494;51.796;10.952;2023-01-25T14:51:56;1.20;99.90
10883;DHT22;5494;51.796;10.952;2023-01-25T14:54:30;1.30;99.90
10883;DHT22;5494;51.796;10.952;2023-01-25T14:57:03;1.30;99.90
10883;DHT22;5494;51.796;10.952;2023-01-25T14:59:35;1.30;99.90
10883;DHT22;5494;51.796;10.952;2023-01-25T15:02:16;1.40;99.90
10883;DHT22;5494;51.796;10.952;2023-01-25T15:04:55;1.40;99.90
10883;DHT22;5494;51.796;10.952;2023-01-25T15:07:47;1.50;99.90
10883;DHT22;5494;51.796;10.952;2023-01-25T15:10:19;1.50;99.90
10883;DHT22;5494;51.796;10.952;2023-01-25T15:12:58;1.40;99.90
10883;DHT22;5494;51.796;10.952;2023-01-25T15:15:52;1.50;99.90
10883;DHT22;5494;51.796;10.952;2023-01-25T15:18:43;1.40;99.90
10883;DHT22;5494;51.796;10.952;2023-01-25T15:21:13;1.40;99.90
10883;DHT22;5494;51.796;10.952;2023-01-25T15:23:44;1.40;99.90
10883;DHT22;5494;51.796;10.952;2023-01-25T15:26:17;1.30;99.90
10883;DHT22;5494;51.796;10.952;2023-01-25T15:28:48;1.30;99.90
10883;DHT22;5494;51.796;10.952;2023-01-25T15:31:20;1.20;99.90
10883;DHT22;5494;51.796;10.952;2023-01-25T15:33:51;1.20;99.90
10883;DHT22;5494;51.796;10.952;2023-01-25T15:36:19;1.20;99.90
10883;DHT22;5494;51.796;10.952;2023-01-25T15:38:47;1.30;99.90
10883;DHT22;5494;51.796;10.952;2023-01-25T15:41:15;1.20;99.90
10883;DHT22;5494;51.796;10.952;2023-01-25T15:43:45;1.10;99.90
10883;DHT22;5494;51.796;10.952;2023-01-25T15:46:17;1.10;99.90
10883;DHT22;5494;51.796;10.952;2023-01-25T15:48:48;1.10;99.90
10883;DHT22;5494;51.796;10.952;2023-01-25T15:51:17;1.10;99.90
10883;DHT22;5494;51.796;10.952;2023-01-25T15:53:46;1.10;99.90
10883;DHT22;5494;51.796;10.952;2023-01-25T15:56:17;1.10;99.90
10883;DHT22;5494;51.796;10.952;2023-01-25T15:58:49;1.10;99.90
10883;DHT22;5494;51.796;10.952;2023-01-25T16:01:20;1.10;99.90
10883;DHT22;5494;51.796;10.952;2023-01-25T16:03:48;1.00;99.90
10883;DHT22;5494;51.796;10.952;2023-01-25T16:06:25;1.00;99.90
10883;DHT22;5494;51.796;10.952;2023-01-25T16:08:58;1.00;99.90
10883;DHT22;5494;51.796;10.952;2023-01-25T16:11:27;0.90;99.90
10883;DHT22;5494;51.796;10.952;2023-01-25T16:13:55;0.90;99.90
10883;DHT22;5494;51.796;10.952;2023-01-25T16:16:24;0.90;99.90
10883;DHT22;5494;51.796;10.952;2023-01-25T16:18:52;0.90;99.90
10883;DHT22;5494;51.796;10.952;2023-01-25T16:21:20;0.90;99.90
10883;DHT22;5494;51.796;10.952;2023-01-25T16:23:48;0.90;99.90
10883;DHT22;5494;51.796;10.952;2023-01-25T16:26:19;0.90;99.90
10883;DHT22;5494;51.796;10.952;2023-01-25T16:28:49;0.90;99.90
10883;DHT22;5494;51.796;10.952;2023-01-25T16:31:18;0.90;99.90
10883;DHT22;5494;51.796;10.952;2023-01-25T16:34:00;0.90;99.90
10883;DHT22;5494;51.796;10.952;2023-01-25T16:36:29;0.90;99.90